sensor_id;sensor_type;location;lat;lon;timestamp;P1;durP1;ratioP1;P2;durP2;ratioP2
74543;SDS011;63016;55.030;38.710;2024-03-08T00:01:06;10.23;;;3.15;;
74543;SDS011;63016;55.030;38.710;2024-03-08T00:03:32;7.50;;;2.17;;
74543;SDS011;63016;55.030;38.710;2024-03-08T00:05:57;7.75;;;2.40;;
74543;SDS011;63016;55.030;38.710;2024-03-08T00:08:23;9.82;;;2.60;;
74543;SDS011;63016;55.030;38.710;2024-03-08T00:10:50;9.02;;;2.45;;
74543;SDS011;63016;55.030;38.710;2024-03-08T00:13:15;6.70;;;2.20;;
74543;SDS011;63016;55.030;38.710;2024-03-08T00:15:41;5.40;;;2.30;;
74543;SDS011;63016;55.030;38.710;2024-03-08T00:18:06;6.35;;;2.08;;
74543;SDS011;63016;55.030;38.710;2024-03-08T00:20:32;7.90;;;2.28;;
74543;SDS011;63016;55.030;38.710;2024-03-08T00:22:58;6.85;;;2.50;;
74543;SDS011;63016;55.030;38.710;2024-03-08T00:25:24;7.28;;;2.30;;
74543;SDS011;63016;55.030;38.710;2024-03-08T00:27:49;7.70;;;2.42;;
74543;SDS011;63016;55.030;38.710;2024-03-08T00:30:15;7.90;;;2.22;;
74543;SDS011;63016;55.030;38.710;2024-03-08T00:32:40;7.78;;;2.47;;
74543;SDS011;63016;55.030;38.710;2024-03-08T00:35:06;6.55;;;2.60;;
74543;SDS011;63016;55.030;38.710;2024-03-08T00:37:32;7.57;;;2.03;;
74543;SDS011;63016;55.030;38.710;2024-03-08T00:39:59;8.70;;;2.47;;
74543;SDS011;63016;55.030;38.710;2024-03-08T00:42:25;5.78;;;2.45;;
74543;SDS011;63016;55.030;38.710;2024-03-08T00:44:50;6.55;;;2.50;;
74543;SDS011;63016;55.030;38.710;2024-03-08T00:47:16;7.97;;;2.60;;
74543;SDS011;63016;55.030;38.710;2024-03-08T00:49:42;8.15;;;2.42;;
74543;SDS011;63016;55.030;38.710;2024-03-08T00:52:07;9.80;;;2.42;;
74543;SDS011;63016;55.030;38.710;2024-03-08T00:54:36;7.30;;;2.58;;
74543;SDS011;63016;55.030;38.710;2024-03-08T00:57:02;5.50;;;2.50;;
74543;SDS011;63016;55.030;38.710;2024-03-08T00:59:28;7.65;;;2.90;;
74543;SDS011;63016;55.030;38.710;2024-03-08T01:01:54;6.65;;;2.72;;
74543;SDS011;63016;55.030;38.710;2024-03-08T01:04:20;7.60;;;3.00;;
74543;SDS011;63016;55.030;38.710;2024-03-08T01:06:48;8.52;;;2.83;;
74543;SDS011;63016;55.030;38.710;2024-03-08T01:09:13;10.25;;;3.20;;
74543;SDS011;63016;55.030;38.710;2024-03-08T01:11:39;8.73;;;3.50;;
74543;SDS011;63016;55.030;38.710;2024-03-08T01:14:05;10.98;;;3.20;;
74543;SDS011;63016;55.030;38.710;2024-03-08T01:16:30;7.97;;;2.97;;
74543;SDS011;63016;55.030;38.710;2024-03-08T01:18:58;7.88;;;2.60;;
74543;SDS011;63016;55.030;38.710;2024-03-08T01:21:24;11.10;;;2.95;;
74543;SDS011;63016;55.030;38.710;2024-03-08T01:23:49;6.82;;;2.92;;
74543;SDS011;63016;55.030;38.710;2024-03-08T01:26:14;12.88;;;3.40;;
74543;SDS011;63016;55.030;38.710;2024-03-08T01:28:41;7.10;;;2.78;;
74543;SDS011;63016;55.030;38.710;2024-03-08T01:31:06;7.10;;;2.50;;
74543;SDS011;63016;55.030;38.710;2024-03-08T01:33:32;6.93;;;2.80;;
74543;SDS011;63016;55.030;38.710;2024-03-08T01:35:58;14.15;;;2.78;;
74543;SDS011;63016;55.030;38.710;2024-03-08T01:38:23;10.52;;;3.17;;
74543;SDS011;63016;55.030;38.710;2024-03-08T01:40:49;10.10;;;2.80;;
74543;SDS011;63016;55.030;38.710;2024-03-08T01:43:24;9.70;;;3.42;;
74543;SDS011;63016;55.030;38.710;2024-03-08T01:45:53;8.02;;;2.90;;
74543;SDS011;63016;55.030;38.710;2024-03-08T01:48:20;8.55;;;3.03;;
74543;SDS011;63016;55.030;38.710;2024-03-08T01:50:49;8.38;;;3.00;;
74543;SDS011;63016;55.030;38.710;2024-03-08T01:53:17;11.98;;;3.05;;
74543;SDS011;63016;55.030;38.710;2024-03-08T01:55:47;9.30;;;3.33;;
74543;SDS011;63016;55.030;38.710;2024-03-08T01:58:13;8.80;;;2.83;;
74543;SDS011;63016;55.030;38.710;2024-03-08T02:00:46;10.05;;;3.20;;
74543;SDS011;63016;55.030;38.710;2024-03-08T02:03:17;12.20;;;4.00;;
74543;SDS011;63016;55.030;38.710;2024-03-08T02:05:42;11.20;;;3.80;;
74543;SDS011;63016;55.030;38.710;2024-03-08T02:08:11;11.25;;;3.65;;
74543;SDS011;63016;55.030;38.710;2024-03-08T02:10:43;10.27;;;3.88;;
74543;SDS011;63016;55.030;38.710;2024-03-08T02:13:10;12.25;;;4.03;;
74543;SDS011;63016;55.030;38.710;2024-03-08T02:18:22;14.40;;;4.38;;
74543;SDS011;63016;55.030;38.710;2024-03-08T02:20:52;14.65;;;4.32;;
74543;SDS011;63016;55.030;38.710;2024-03-08T02:23:21;9.82;;;3.88;;
74543;SDS011;63016;55.030;38.710;2024-03-08T02:25:47;14.18;;;4.35;;
74543;SDS011;63016;55.030;38.710;2024-03-08T02:28:14;16.17;;;4.22;;
74543;SDS011;63016;55.030;38.710;2024-03-08T02:30:40;14.15;;;4.78;;
74543;SDS011;63016;55.030;38.710;2024-03-08T02:33:06;15.23;;;4.25;;
74543;SDS011;63016;55.030;38.710;2024-03-08T02:35:34;12.70;;;3.97;;
74543;SDS011;63016;55.030;38.710;2024-03-08T02:38:00;14.38;;;4.47;;
74543;SDS011;63016;55.030;38.710;2024-03-08T02:40:26;12.05;;;4.47;;
74543;SDS011;63016;55.030;38.710;2024-03-08T02:42:51;12.50;;;4.28;;
74543;SDS011;63016;55.030;38.710;2024-03-08T02:45:17;12.43;;;3.97;;
74543;SDS011;63016;55.030;38.710;2024-03-08T02:47:43;10.32;;;3.92;;
74543;SDS011;63016;55.030;38.710;2024-03-08T02:50:09;15.45;;;4.63;;
74543;SDS011;63016;55.030;38.710;2024-03-08T02:52:34;11.70;;;3.92;;
74543;SDS011;63016;55.030;38.710;2024-03-08T02:55:02;14.05;;;4.65;;
74543;SDS011;63016;55.030;38.710;2024-03-08T02:57:31;12.18;;;4.40;;
74543;SDS011;63016;55.030;38.710;2024-03-08T02:59:58;15.50;;;4.80;;
74543;SDS011;63016;55.030;38.710;2024-03-08T03:02:25;13.60;;;5.03;;
74543;SDS011;63016;55.030;38.710;2024-03-08T03:04:51;12.88;;;4.78;;
74543;SDS011;63016;55.030;38.710;2024-03-08T03:07:17;13.45;;;4.90;;
74543;SDS011;63016;55.030;38.710;2024-03-08T03:09:43;11.95;;;4.38;;
74543;SDS011;63016;55.030;38.710;2024-03-08T03:12:08;15.80;;;5.20;;
74543;SDS011;63016;55.030;38.710;2024-03-08T03:14:37;13.43;;;4.93;;
74543;SDS011;63016;55.030;38.710;2024-03-08T03:17:05;14.00;;;5.13;;
74543;SDS011;63016;55.030;38.710;2024-03-08T03:19:31;14.57;;;5.65;;
74543;SDS011;63016;55.030;38.710;2024-03-08T03:21:57;11.55;;;4.35;;
74543;SDS011;63016;55.030;38.710;2024-03-08T03:24:22;14.25;;;5.40;;
74543;SDS011;63016;55.030;38.710;2024-03-08T03:26:48;16.17;;;5.00;;
74543;SDS011;63016;55.030;38.710;2024-03-08T03:29:14;11.90;;;4.93;;
74543;SDS011;63016;55.030;38.710;2024-03-08T03:31:42;14.15;;;5.38;;
74543;SDS011;63016;55.030;38.710;2024-03-08T03:34:11;11.23;;;4.68;;
74543;SDS011;63016;55.030;38.710;2024-03-08T03:36:37;13.55;;;4.85;;
74543;SDS011;63016;55.030;38.710;2024-03-08T03:39:07;14.45;;;5.43;;
74543;SDS011;63016;55.030;38.710;2024-03-08T03:41:37;13.70;;;5.70;;
74543;SDS011;63016;55.030;38.710;2024-03-08T03:44:03;14.20;;;4.70;;
74543;SDS011;63016;55.030;38.710;2024-03-08T03:46:30;15.07;;;5.13;;
74543;SDS011;63016;55.030;38.710;2024-03-08T03:48:56;17.27;;;5.97;;
74543;SDS011;63016;55.030;38.710;2024-03-08T03:51:21;14.35;;;4.53;;
74543;SDS011;63016;55.030;38.710;2024-03-08T03:53:47;14.20;;;6.15;;
74543;SDS011;63016;55.030;38.710;2024-03-08T03:56:12;12.00;;;4.97;;
74543;SDS011;63016;55.030;38.710;2024-03-08T03:58:38;11.15;;;4.60;;
74543;SDS011;63016;55.030;38.710;2024-03-08T04:01:04;12.45;;;5.18;;
74543;SDS011;63016;55.030;38.710;2024-03-08T04:03:30;11.60;;;5.20;;
74543;SDS011;63016;55.030;38.710;2024-03-08T04:05:56;12.40;;;5.00;;
74543;SDS011;63016;55.030;38.710;2024-03-08T04:08:22;15.13;;;5.22;;
74543;SDS011;63016;55.030;38.710;2024-03-08T04:10:49;13.45;;;5.45;;
74543;SDS011;63016;55.030;38.710;2024-03-08T04:13:14;11.90;;;4.97;;
74543;SDS011;63016;55.030;38.710;2024-03-08T04:15:40;14.82;;;5.35;;
74543;SDS011;63016;55.030;38.710;2024-03-08T04:18:09;9.77;;;4.97;;
74543;SDS011;63016;55.030;38.710;2024-03-08T04:20:34;13.90;;;5.47;;
74543;SDS011;63016;55.030;38.710;2024-03-08T04:23:01;15.13;;;5.53;;
74543;SDS011;63016;55.030;38.710;2024-03-08T04:25:27;10.88;;;5.55;;
74543;SDS011;63016;55.030;38.710;2024-03-08T04:27:52;13.32;;;5.20;;
74543;SDS011;63016;55.030;38.710;2024-03-08T04:30:18;12.68;;;5.03;;
74543;SDS011;63016;55.030;38.710;2024-03-08T04:32:46;15.73;;;6.10;;
74543;SDS011;63016;55.030;38.710;2024-03-08T04:35:12;14.27;;;5.38;;
74543;SDS011;63016;55.030;38.710;2024-03-08T04:37:38;13.38;;;5.40;;
74543;SDS011;63016;55.030;38.710;2024-03-08T04:40:04;13.45;;;6.30;;
74543;SDS011;63016;55.030;38.710;2024-03-08T04:42:30;15.32;;;6.63;;
74543;SDS011;63016;55.030;38.710;2024-03-08T04:44:57;13.32;;;6.10;;
74543;SDS011;63016;55.030;38.710;2024-03-08T04:47:23;13.80;;;5.78;;
74543;SDS011;63016;55.030;38.710;2024-03-08T04:49:49;14.13;;;5.55;;
74543;SDS011;63016;55.030;38.710;2024-03-08T04:52:15;13.07;;;6.05;;
74543;SDS011;63016;55.030;38.710;2024-03-08T04:54:41;18.27;;;6.35;;
74543;SDS011;63016;55.030;38.710;2024-03-08T04:57:07;15.57;;;6.35;;
74543;SDS011;63016;55.030;38.710;2024-03-08T04:59:32;13.05;;;6.00;;
74543;SDS011;63016;55.030;38.710;2024-03-08T05:01:58;16.23;;;6.75;;
74543;SDS011;63016;55.030;38.710;2024-03-08T05:04:24;19.67;;;6.30;;
74543;SDS011;63016;55.030;38.710;2024-03-08T05:06:49;14.90;;;6.75;;
74543;SDS011;63016;55.030;38.710;2024-03-08T05:09:15;13.80;;;6.20;;
74543;SDS011;63016;55.030;38.710;2024-03-08T05:11:41;13.43;;;6.25;;
74543;SDS011;63016;55.030;38.710;2024-03-08T05:14:08;14.43;;;6.97;;
74543;SDS011;63016;55.030;38.710;2024-03-08T05:16:33;15.90;;;7.10;;
74543;SDS011;63016;55.030;38.710;2024-03-08T05:18:59;14.98;;;6.57;;
74543;SDS011;63016;55.030;38.710;2024-03-08T05:21:24;16.38;;;6.03;;
74543;SDS011;63016;55.030;38.710;2024-03-08T05:23:50;17.42;;;6.55;;
74543;SDS011;63016;55.030;38.710;2024-03-08T05:26:16;13.57;;;5.68;;
74543;SDS011;63016;55.030;38.710;2024-03-08T05:28:41;18.30;;;6.40;;
74543;SDS011;63016;55.030;38.710;2024-03-08T05:31:08;14.15;;;6.32;;
74543;SDS011;63016;55.030;38.710;2024-03-08T05:33:33;14.70;;;6.30;;
74543;SDS011;63016;55.030;38.710;2024-03-08T05:36:02;16.70;;;6.80;;
74543;SDS011;63016;55.030;38.710;2024-03-08T05:38:28;14.55;;;6.45;;
74543;SDS011;63016;55.030;38.710;2024-03-08T05:40:54;17.58;;;6.90;;
74543;SDS011;63016;55.030;38.710;2024-03-08T05:43:20;13.82;;;6.20;;
74543;SDS011;63016;55.030;38.710;2024-03-08T05:45:45;15.77;;;5.97;;
74543;SDS011;63016;55.030;38.710;2024-03-08T05:48:13;13.95;;;5.93;;
74543;SDS011;63016;55.030;38.710;2024-03-08T05:50:38;12.45;;;5.43;;
74543;SDS011;63016;55.030;38.710;2024-03-08T05:53:04;13.77;;;5.72;;
74543;SDS011;63016;55.030;38.710;2024-03-08T05:55:32;14.07;;;5.57;;
74543;SDS011;63016;55.030;38.710;2024-03-08T05:58:01;15.40;;;6.43;;
74543;SDS011;63016;55.030;38.710;2024-03-08T06:00:27;14.77;;;5.97;;
74543;SDS011;63016;55.030;38.710;2024-03-08T06:02:52;12.75;;;5.95;;
74543;SDS011;63016;55.030;38.710;2024-03-08T06:05:18;16.13;;;6.38;;
74543;SDS011;63016;55.030;38.710;2024-03-08T06:07:44;16.17;;;5.88;;
74543;SDS011;63016;55.030;38.710;2024-03-08T06:10:10;15.68;;;5.93;;
74543;SDS011;63016;55.030;38.710;2024-03-08T06:12:37;12.77;;;6.28;;
74543;SDS011;63016;55.030;38.710;2024-03-08T06:15:06;12.63;;;5.28;;
74543;SDS011;63016;55.030;38.710;2024-03-08T06:17:34;12.05;;;5.70;;
74543;SDS011;63016;55.030;38.710;2024-03-08T06:20:00;12.38;;;5.07;;
74543;SDS011;63016;55.030;38.710;2024-03-08T06:22:26;10.27;;;4.47;;
74543;SDS011;63016;55.030;38.710;2024-03-08T06:24:51;12.00;;;4.95;;
74543;SDS011;63016;55.030;38.710;2024-03-08T06:27:19;10.25;;;4.32;;
74543;SDS011;63016;55.030;38.710;2024-03-08T06:29:44;10.98;;;4.82;;
74543;SDS011;63016;55.030;38.710;2024-03-08T06:32:10;11.73;;;4.28;;
74543;SDS011;63016;55.030;38.710;2024-03-08T06:34:35;11.88;;;5.00;;
74543;SDS011;63016;55.030;38.710;2024-03-08T06:37:01;12.05;;;5.05;;
74543;SDS011;63016;55.030;38.710;2024-03-08T06:39:27;12.02;;;4.70;;
74543;SDS011;63016;55.030;38.710;2024-03-08T06:41:56;11.18;;;4.97;;
74543;SDS011;63016;55.030;38.710;2024-03-08T06:44:22;12.50;;;4.93;;
74543;SDS011;63016;55.030;38.710;2024-03-08T06:46:48;10.77;;;5.13;;
74543;SDS011;63016;55.030;38.710;2024-03-08T06:49:13;11.43;;;5.20;;
74543;SDS011;63016;55.030;38.710;2024-03-08T06:51:40;11.13;;;4.80;;
74543;SDS011;63016;55.030;38.710;2024-03-08T06:54:06;12.18;;;4.65;;
74543;SDS011;63016;55.030;38.710;2024-03-08T06:56:37;10.45;;;4.40;;
74543;SDS011;63016;55.030;38.710;2024-03-08T06:59:03;12.13;;;4.75;;
74543;SDS011;63016;55.030;38.710;2024-03-08T07:01:29;13.82;;;5.22;;
74543;SDS011;63016;55.030;38.710;2024-03-08T07:03:59;12.73;;;5.20;;
74543;SDS011;63016;55.030;38.710;2024-03-08T07:06:27;11.77;;;4.93;;
74543;SDS011;63016;55.030;38.710;2024-03-08T07:08:53;10.55;;;5.18;;
74543;SDS011;63016;55.030;38.710;2024-03-08T07:11:19;14.20;;;5.75;;
74543;SDS011;63016;55.030;38.710;2024-03-08T07:13:45;12.02;;;4.80;;
74543;SDS011;63016;55.030;38.710;2024-03-08T07:16:11;13.15;;;5.45;;
74543;SDS011;63016;55.030;38.710;2024-03-08T07:18:37;11.45;;;5.78;;
74543;SDS011;63016;55.030;38.710;2024-03-08T07:21:08;12.60;;;5.05;;
74543;SDS011;63016;55.030;38.710;2024-03-08T07:23:34;13.73;;;4.82;;
74543;SDS011;63016;55.030;38.710;2024-03-08T07:26:15;16.25;;;5.25;;
74543;SDS011;63016;55.030;38.710;2024-03-08T07:28:41;12.25;;;5.60;;
74543;SDS011;63016;55.030;38.710;2024-03-08T07:31:07;12.63;;;5.30;;
74543;SDS011;63016;55.030;38.710;2024-03-08T07:33:51;14.57;;;6.25;;
74543;SDS011;63016;55.030;38.710;2024-03-08T07:36:18;16.15;;;5.40;;
74543;SDS011;63016;55.030;38.710;2024-03-08T07:38:44;12.52;;;5.65;;
74543;SDS011;63016;55.030;38.710;2024-03-08T07:41:13;14.43;;;5.53;;
74543;SDS011;63016;55.030;38.710;2024-03-08T07:43:40;15.30;;;5.93;;
74543;SDS011;63016;55.030;38.710;2024-03-08T07:46:06;13.57;;;5.70;;
74543;SDS011;63016;55.030;38.710;2024-03-08T07:48:31;14.98;;;5.97;;
74543;SDS011;63016;55.030;38.710;2024-03-08T07:51:01;13.80;;;6.13;;
74543;SDS011;63016;55.030;38.710;2024-03-08T07:53:30;13.35;;;6.00;;
74543;SDS011;63016;55.030;38.710;2024-03-08T07:55:56;18.38;;;6.03;;
74543;SDS011;63016;55.030;38.710;2024-03-08T07:58:25;16.42;;;6.38;;
74543;SDS011;63016;55.030;38.710;2024-03-08T08:00:50;18.05;;;4.57;;
74543;SDS011;63016;55.030;38.710;2024-03-08T08:03:16;18.40;;;6.55;;
74543;SDS011;63016;55.030;38.710;2024-03-08T08:05:45;13.00;;;6.60;;
74543;SDS011;63016;55.030;38.710;2024-03-08T08:08:12;15.02;;;5.80;;
74543;SDS011;63016;55.030;38.710;2024-03-08T08:10:37;13.80;;;5.75;;
74543;SDS011;63016;55.030;38.710;2024-03-08T08:13:03;14.65;;;5.70;;
74543;SDS011;63016;55.030;38.710;2024-03-08T08:15:32;12.10;;;5.80;;
74543;SDS011;63016;55.030;38.710;2024-03-08T08:18:00;15.73;;;5.72;;
74543;SDS011;63016;55.030;38.710;2024-03-08T08:20:27;14.32;;;6.28;;
74543;SDS011;63016;55.030;38.710;2024-03-08T08:22:54;16.63;;;6.05;;
74543;SDS011;63016;55.030;38.710;2024-03-08T08:25:20;13.80;;;5.97;;
74543;SDS011;63016;55.030;38.710;2024-03-08T08:27:47;13.43;;;6.25;;
74543;SDS011;63016;55.030;38.710;2024-03-08T08:30:13;14.70;;;6.47;;
74543;SDS011;63016;55.030;38.710;2024-03-08T08:32:38;20.63;;;6.10;;
74543;SDS011;63016;55.030;38.710;2024-03-08T08:35:05;12.80;;;5.95;;
74543;SDS011;63016;55.030;38.710;2024-03-08T08:37:34;14.80;;;6.30;;
74543;SDS011;63016;55.030;38.710;2024-03-08T08:40:03;8.23;;;4.75;;
74543;SDS011;63016;55.030;38.710;2024-03-08T08:42:34;15.52;;;6.40;;
74543;SDS011;63016;55.030;38.710;2024-03-08T08:44:59;13.35;;;5.93;;
74543;SDS011;63016;55.030;38.710;2024-03-08T08:47:25;11.73;;;5.53;;
74543;SDS011;63016;55.030;38.710;2024-03-08T08:49:51;13.68;;;6.68;;
74543;SDS011;63016;55.030;38.710;2024-03-08T08:52:16;15.82;;;6.35;;
74543;SDS011;63016;55.030;38.710;2024-03-08T08:54:42;14.73;;;6.53;;
74543;SDS011;63016;55.030;38.710;2024-03-08T08:57:09;17.08;;;6.70;;
74543;SDS011;63016;55.030;38.710;2024-03-08T08:59:35;14.05;;;6.30;;
74543;SDS011;63016;55.030;38.710;2024-03-08T09:02:01;12.15;;;6.05;;
74543;SDS011;63016;55.030;38.710;2024-03-08T09:04:28;14.27;;;6.53;;
74543;SDS011;63016;55.030;38.710;2024-03-08T09:06:55;16.23;;;6.85;;
74543;SDS011;63016;55.030;38.710;2024-03-08T09:09:22;17.63;;;7.00;;
74543;SDS011;63016;55.030;38.710;2024-03-08T09:11:47;13.60;;;6.68;;
74543;SDS011;63016;55.030;38.710;2024-03-08T09:14:14;15.02;;;6.00;;
74543;SDS011;63016;55.030;38.710;2024-03-08T09:16:40;16.13;;;6.32;;
74543;SDS011;63016;55.030;38.710;2024-03-08T09:19:05;13.00;;;6.78;;
74543;SDS011;63016;55.030;38.710;2024-03-08T09:21:32;13.02;;;6.22;;
74543;SDS011;63016;55.030;38.710;2024-03-08T09:23:59;14.45;;;6.85;;
74543;SDS011;63016;55.030;38.710;2024-03-08T09:26:25;14.65;;;6.97;;
74543;SDS011;63016;55.030;38.710;2024-03-08T09:28:52;15.10;;;7.22;;
74543;SDS011;63016;55.030;38.710;2024-03-08T09:31:20;15.15;;;6.88;;
74543;SDS011;63016;55.030;38.710;2024-03-08T09:33:46;15.57;;;6.60;;
74543;SDS011;63016;55.030;38.710;2024-03-08T09:36:12;13.98;;;6.70;;
74543;SDS011;63016;55.030;38.710;2024-03-08T09:38:39;16.80;;;6.72;;
74543;SDS011;63016;55.030;38.710;2024-03-08T09:41:05;14.60;;;6.38;;
74543;SDS011;63016;55.030;38.710;2024-03-08T09:43:31;16.50;;;6.78;;
74543;SDS011;63016;55.030;38.710;2024-03-08T09:45:57;15.05;;;6.70;;
74543;SDS011;63016;55.030;38.710;2024-03-08T09:48:25;16.48;;;7.13;;
74543;SDS011;63016;55.030;38.710;2024-03-08T09:50:51;15.05;;;7.57;;
74543;SDS011;63016;55.030;38.710;2024-03-08T09:53:17;17.60;;;7.65;;
74543;SDS011;63016;55.030;38.710;2024-03-08T09:55:42;16.38;;;6.45;;
74543;SDS011;63016;55.030;38.710;2024-03-08T09:58:11;16.42;;;7.43;;
74543;SDS011;63016;55.030;38.710;2024-03-08T10:00:46;16.33;;;7.07;;
74543;SDS011;63016;55.030;38.710;2024-03-08T10:03:12;16.92;;;7.68;;
74543;SDS011;63016;55.030;38.710;2024-03-08T10:05:40;16.95;;;7.63;;
74543;SDS011;63016;55.030;38.710;2024-03-08T10:08:06;15.68;;;7.72;;
74543;SDS011;63016;55.030;38.710;2024-03-08T10:10:35;16.10;;;7.55;;
74543;SDS011;63016;55.030;38.710;2024-03-08T10:13:04;20.35;;;8.05;;
74543;SDS011;63016;55.030;38.710;2024-03-08T10:15:34;14.25;;;7.32;;
74543;SDS011;63016;55.030;38.710;2024-03-08T10:18:00;14.40;;;7.20;;
74543;SDS011;63016;55.030;38.710;2024-03-08T10:20:30;16.95;;;8.50;;
74543;SDS011;63016;55.030;38.710;2024-03-08T10:23:02;16.65;;;6.95;;
74543;SDS011;63016;55.030;38.710;2024-03-08T10:25:31;16.67;;;7.50;;
74543;SDS011;63016;55.030;38.710;2024-03-08T10:27:57;20.17;;;8.48;;
74543;SDS011;63016;55.030;38.710;2024-03-08T10:30:23;15.00;;;7.65;;
74543;SDS011;63016;55.030;38.710;2024-03-08T10:32:50;15.00;;;7.90;;
74543;SDS011;63016;55.030;38.710;2024-03-08T10:35:16;16.65;;;8.20;;
74543;SDS011;63016;55.030;38.710;2024-03-08T10:40:22;15.27;;;7.53;;
74543;SDS011;63016;55.030;38.710;2024-03-08T10:42:54;15.40;;;8.25;;
74543;SDS011;63016;55.030;38.710;2024-03-08T10:45:34;17.42;;;8.00;;
74543;SDS011;63016;55.030;38.710;2024-03-08T10:48:09;17.05;;;8.00;;
74543;SDS011;63016;55.030;38.710;2024-03-08T10:50:40;17.48;;;7.85;;
74543;SDS011;63016;55.030;38.710;2024-03-08T10:53:06;27.00;;;8.65;;
74543;SDS011;63016;55.030;38.710;2024-03-08T10:55:32;17.73;;;8.05;;
74543;SDS011;63016;55.030;38.710;2024-03-08T10:57:59;15.48;;;7.88;;
74543;SDS011;63016;55.030;38.710;2024-03-08T11:00:25;16.08;;;7.97;;
74543;SDS011;63016;55.030;38.710;2024-03-08T11:02:54;16.38;;;7.50;;
74543;SDS011;63016;55.030;38.710;2024-03-08T11:08:17;15.98;;;8.02;;
74543;SDS011;63016;55.030;38.710;2024-03-08T11:10:47;13.40;;;7.22;;
74543;SDS011;63016;55.030;38.710;2024-03-08T11:16:11;18.40;;;7.85;;
74543;SDS011;63016;55.030;38.710;2024-03-08T11:19:01;16.77;;;7.85;;
74543;SDS011;63016;55.030;38.710;2024-03-08T11:21:56;16.88;;;7.88;;
74543;SDS011;63016;55.030;38.710;2024-03-08T11:24:24;17.05;;;8.15;;
74543;SDS011;63016;55.030;38.710;2024-03-08T11:26:49;19.95;;;7.82;;
74543;SDS011;63016;55.030;38.710;2024-03-08T11:32:14;15.25;;;7.57;;
74543;SDS011;63016;55.030;38.710;2024-03-08T11:34:43;15.65;;;7.60;;
74543;SDS011;63016;55.030;38.710;2024-03-08T11:37:12;14.68;;;8.05;;
74543;SDS011;63016;55.030;38.710;2024-03-08T11:39:47;15.23;;;7.75;;
74543;SDS011;63016;55.030;38.710;2024-03-08T11:42:18;14.45;;;7.57;;
74543;SDS011;63016;55.030;38.710;2024-03-08T11:44:45;14.32;;;7.13;;
74543;SDS011;63016;55.030;38.710;2024-03-08T11:47:11;16.88;;;7.15;;
74543;SDS011;63016;55.030;38.710;2024-03-08T11:49:38;17.55;;;7.00;;
74543;SDS011;63016;55.030;38.710;2024-03-08T11:52:04;16.15;;;7.32;;
74543;SDS011;63016;55.030;38.710;2024-03-08T11:54:30;14.18;;;6.80;;
74543;SDS011;63016;55.030;38.710;2024-03-08T11:56:56;13.98;;;7.28;;
74543;SDS011;63016;55.030;38.710;2024-03-08T11:59:28;14.63;;;6.95;;
74543;SDS011;63016;55.030;38.710;2024-03-08T12:02:02;14.02;;;7.32;;
74543;SDS011;63016;55.030;38.710;2024-03-08T12:04:29;15.57;;;7.93;;
74543;SDS011;63016;55.030;38.710;2024-03-08T12:06:57;15.38;;;6.97;;
74543;SDS011;63016;55.030;38.710;2024-03-08T12:09:27;15.50;;;7.43;;
74543;SDS011;63016;55.030;38.710;2024-03-08T12:11:53;15.07;;;7.20;;
74543;SDS011;63016;55.030;38.710;2024-03-08T12:14:19;15.20;;;7.78;;
74543;SDS011;63016;55.030;38.710;2024-03-08T12:16:45;16.33;;;7.55;;
74543;SDS011;63016;55.030;38.710;2024-03-08T12:19:13;20.77;;;7.82;;
74543;SDS011;63016;55.030;38.710;2024-03-08T12:21:39;14.25;;;7.32;;
74543;SDS011;63016;55.030;38.710;2024-03-08T12:24:14;13.52;;;7.38;;
74543;SDS011;63016;55.030;38.710;2024-03-08T12:26:45;18.30;;;8.02;;
74543;SDS011;63016;55.030;38.710;2024-03-08T12:31:58;28.67;;;7.93;;
74543;SDS011;63016;55.030;38.710;2024-03-08T12:34:26;16.27;;;8.07;;
74543;SDS011;63016;55.030;38.710;2024-03-08T12:36:53;16.27;;;8.18;;
74543;SDS011;63016;55.030;38.710;2024-03-08T12:39:22;15.52;;;7.63;;
74543;SDS011;63016;55.030;38.710;2024-03-08T12:41:51;16.40;;;7.82;;
74543;SDS011;63016;55.030;38.710;2024-03-08T12:44:22;15.95;;;7.68;;
74543;SDS011;63016;55.030;38.710;2024-03-08T12:46:48;18.08;;;8.10;;
74543;SDS011;63016;55.030;38.710;2024-03-08T12:49:14;16.88;;;7.72;;
74543;SDS011;63016;55.030;38.710;2024-03-08T12:51:45;17.17;;;8.60;;
74543;SDS011;63016;55.030;38.710;2024-03-08T12:54:11;16.80;;;8.15;;
74543;SDS011;63016;55.030;38.710;2024-03-08T12:56:37;16.90;;;8.13;;
74543;SDS011;63016;55.030;38.710;2024-03-08T12:59:04;15.88;;;7.45;;
74543;SDS011;63016;55.030;38.710;2024-03-08T13:01:30;14.88;;;8.15;;
74543;SDS011;63016;55.030;38.710;2024-03-08T13:03:57;15.32;;;7.75;;
74543;SDS011;63016;55.030;38.710;2024-03-08T13:06:28;17.42;;;8.18;;
74543;SDS011;63016;55.030;38.710;2024-03-08T13:08:56;15.10;;;7.85;;
74543;SDS011;63016;55.030;38.710;2024-03-08T13:11:23;18.08;;;8.52;;
74543;SDS011;63016;55.030;38.710;2024-03-08T13:13:48;16.98;;;8.23;;
74543;SDS011;63016;55.030;38.710;2024-03-08T13:16:15;17.40;;;8.30;;
74543;SDS011;63016;55.030;38.710;2024-03-08T13:18:42;17.83;;;8.50;;
74543;SDS011;63016;55.030;38.710;2024-03-08T13:21:08;18.63;;;8.02;;
74543;SDS011;63016;55.030;38.710;2024-03-08T13:23:34;19.08;;;8.43;;
74543;SDS011;63016;55.030;38.710;2024-03-08T13:26:05;15.93;;;8.57;;
74543;SDS011;63016;55.030;38.710;2024-03-08T13:28:31;17.30;;;8.73;;
74543;SDS011;63016;55.030;38.710;2024-03-08T13:31:02;16.70;;;8.35;;
74543;SDS011;63016;55.030;38.710;2024-03-08T13:33:31;15.57;;;8.35;;
74543;SDS011;63016;55.030;38.710;2024-03-08T13:36:01;18.92;;;9.40;;
74543;SDS011;63016;55.030;38.710;2024-03-08T13:38:32;17.63;;;9.50;;
74543;SDS011;63016;55.030;38.710;2024-03-08T13:41:01;17.83;;;8.43;;
74543;SDS011;63016;55.030;38.710;2024-03-08T13:43:27;16.92;;;8.63;;
74543;SDS011;63016;55.030;38.710;2024-03-08T13:45:54;19.00;;;9.00;;
74543;SDS011;63016;55.030;38.710;2024-03-08T13:48:20;15.85;;;8.60;;
74543;SDS011;63016;55.030;38.710;2024-03-08T13:50:47;16.77;;;8.32;;
74543;SDS011;63016;55.030;38.710;2024-03-08T13:53:17;19.65;;;9.23;;
74543;SDS011;63016;55.030;38.710;2024-03-08T13:55:43;28.27;;;13.55;;
74543;SDS011;63016;55.030;38.710;2024-03-08T13:58:09;18.10;;;9.15;;
74543;SDS011;63016;55.030;38.710;2024-03-08T14:00:35;20.83;;;9.35;;
74543;SDS011;63016;55.030;38.710;2024-03-08T14:03:02;21.00;;;8.60;;
74543;SDS011;63016;55.030;38.710;2024-03-08T14:05:31;20.27;;;8.65;;
74543;SDS011;63016;55.030;38.710;2024-03-08T14:08:00;17.83;;;9.27;;
74543;SDS011;63016;55.030;38.710;2024-03-08T14:10:29;17.75;;;8.73;;
74543;SDS011;63016;55.030;38.710;2024-03-08T14:12:56;15.88;;;8.20;;
74543;SDS011;63016;55.030;38.710;2024-03-08T14:15:22;19.08;;;8.32;;
74543;SDS011;63016;55.030;38.710;2024-03-08T14:17:54;18.17;;;8.05;;
74543;SDS011;63016;55.030;38.710;2024-03-08T14:20:21;17.48;;;8.55;;
74543;SDS011;63016;55.030;38.710;2024-03-08T14:22:53;17.50;;;8.50;;
74543;SDS011;63016;55.030;38.710;2024-03-08T14:25:21;17.58;;;8.43;;
74543;SDS011;63016;55.030;38.710;2024-03-08T14:27:49;17.15;;;8.90;;
74543;SDS011;63016;55.030;38.710;2024-03-08T14:30:28;17.17;;;8.63;;
74543;SDS011;63016;55.030;38.710;2024-03-08T14:33:01;16.60;;;8.07;;
74543;SDS011;63016;55.030;38.710;2024-03-08T14:35:27;20.08;;;8.82;;
74543;SDS011;63016;55.030;38.710;2024-03-08T14:37:54;15.15;;;7.75;;
74543;SDS011;63016;55.030;38.710;2024-03-08T14:40:22;17.30;;;8.45;;